Time;durP1;ratioP1;P1;durP2;ratioP2;P2;SDS_P1;SDS_P2;PMS_P1;PMS_P2;Temp;Humidity;BMP_temperature;BMP_pressure;BME280_temperature;BME280_humidity;BME280_pressure;Samples;Min_cycle;Max_cycle;Signal;HPM_P1;HPM_P2
2022/10/26 00:01:10;;;;;;;0.20;0.20;;;26.10;83.80;;;;;;5016399;28;20402;-81
2022/10/26 00:03:39;;;;;;;0.30;0.20;;;26.00;84.10;;;;;;4997399;28;20415;-84
2022/10/26 00:06:12;;;;;;;0.13;0.13;;;26.30;84.60;;;;;;4998038;28;20392;-82
2022/10/26 00:08:39;;;;;;;0.35;0.20;;;26.60;82.70;;;;;;4996407;28;20388;-79
2022/10/26 00:11:07;;;;;;;1.30;0.40;;;26.50;80.30;;;;;;5000298;28;20424;-82
2022/10/26 00:13:57;;;;;;;1.10;0.30;;;26.30;82.00;;;;;;5000083;28;20400;-86
2022/10/26 00:16:26;;;;;;;0.30;0.20;;;26.60;79.50;;;;;;5019215;28;20458;-82
2022/10/26 00:18:56;;;;;;;0.77;0.30;;;26.80;77.80;;;;;;5026329;28;20390;-83
2022/10/26 00:21:23;;;;;;;1.13;0.10;;;26.50;73.80;;;;;;5021552;28;20399;-83
2022/10/26 00:23:49;;;;;;;1.70;0.20;;;26.40;75.70;;;;;;5018770;28;20401;-82
2022/10/26 00:26:17;;;;;;;0.40;0.22;;;26.70;75.80;;;;;;5030341;28;20980;-83
2022/10/26 00:28:43;;;;;;;0.50;0.20;;;26.80;74.70;;;;;;5018329;28;20379;-82
2022/10/26 00:31:14;;;;;;;0.63;0.20;;;26.70;74.90;;;;;;5011636;28;20847;-82
2022/10/26 00:33:42;;;;;;;0.10;0.10;;;26.40;73.40;;;;;;4998793;28;20767;-83
2022/10/26 00:36:12;;;;;;;0.50;0.20;;;26.10;73.60;;;;;;5021977;28;20382;-82
2022/10/26 00:38:44;;;;;;;0.10;0.10;;;26.30;75.40;;;;;;5022346;28;20418;-82
2022/10/26 00:41:16;;;;;;;0.10;0.10;;;26.30;71.50;;;;;;5015177;28;20375;-84
2022/10/26 00:43:43;;;;;;;0.70;0.20;;;26.20;73.30;;;;;;5017803;28;20445;-82
2022/10/26 00:46:23;;;;;;;0.90;0.10;;;26.30;73.00;;;;;;5034538;28;20475;-82
2022/10/26 00:48:57;;;;;;;0.40;0.20;;;26.50;73.50;;;;;;5020457;28;20871;-84
2022/10/26 00:51:49;;;;;;;0.10;0.10;;;26.30;70.80;;;;;;5011390;28;20390;-83
2022/10/26 00:54:18;;;;;;;0.35;0.10;;;26.30;73.80;;;;;;5009686;28;20414;-86
2022/10/26 00:56:54;;;;;;;0.80;0.20;;;26.40;73.00;;;;;;5010839;28;20900;-79
2022/10/26 00:59:22;;;;;;;0.55;0.22;;;26.30;75.00;;;;;;5007534;28;20397;-84
2022/10/26 01:01:50;;;;;;;0.60;0.20;;;26.30;74.90;;;;;;4993243;28;20897;-83
2022/10/26 01:04:17;;;;;;;1.42;0.22;;;26.60;73.10;;;;;;4993517;28;20401;-85
2022/10/26 01:06:45;;;;;;;0.68;0.28;;;26.80;68.00;;;;;;4994282;28;20392;-86
2022/10/26 01:09:13;;;;;;;0.60;0.30;;;27.10;69.10;;;;;;4996551;28;20588;-82
2022/10/26 01:11:40;;;;;;;1.40;0.20;;;27.00;66.90;;;;;;4993268;28;20396;-83
2022/10/26 01:14:09;;;;;;;0.43;0.10;;;27.00;66.40;;;;;;4991548;28;20413;-84
2022/10/26 01:17:07;;;;;;;0.20;0.10;;;26.70;65.20;;;;;;4992157;28;20388;-82
2022/10/26 01:20:11;;;;;;;0.80;0.30;;;27.10;64.90;;;;;;4993543;28;20384;-84
2022/10/26 01:23:05;;;;;;;0.80;0.20;;;27.40;63.80;;;;;;4993438;28;20423;-84
2022/10/26 01:25:50;;;;;;;1.23;0.43;;;27.10;61.90;;;;;;4982969;28;20448;-87
2022/10/26 01:28:33;;;;;;;3.40;0.40;;;27.00;58.40;;;;;;4994616;28;20395;-85
2022/10/26 01:31:02;;;;;;;1.65;0.52;;;27.20;59.40;;;;;;4983404;28;20464;-83
2022/10/26 01:33:51;;;;;;;2.28;0.60;;;27.70;61.00;;;;;;4995517;28;20409;-87
2022/10/26 01:36:43;;;;;;;1.45;0.75;;;27.80;58.60;;;;;;4983101;28;20455;-87
2022/10/26 01:39:27;;;;;;;0.70;0.20;;;28.00;58.50;;;;;;4993947;28;20381;-83
2022/10/26 01:42:03;;;;;;;0.25;0.20;;;27.90;57.00;;;;;;4991811;28;21335;-84
2022/10/26 01:44:42;;;;;;;0.50;0.20;;;28.10;57.90;;;;;;5023274;28;20377;-87
2022/10/26 01:47:14;;;;;;;0.30;0.30;;;28.00;57.20;;;;;;4999006;28;20403;-81
2022/10/26 01:50:03;;;;;;;0.40;0.40;;;28.60;56.60;;;;;;5002789;28;20720;-83
2022/10/26 01:52:30;;;;;;;1.60;0.30;;;28.70;57.40;;;;;;4997823;28;20399;-82
2022/10/26 01:55:38;;;;;;;0.55;0.30;;;28.60;57.10;;;;;;4999640;28;20491;-84
2022/10/26 01:58:17;;;;;;;1.08;0.40;;;28.10;56.50;;;;;;4977337;28;20406;-84
2022/10/26 02:01:02;;;;;;;0.50;0.40;;;28.50;55.70;;;;;;4980905;28;20489;-86
2022/10/26 02:03:50;;;;;;;0.20;0.20;;;28.60;55.60;;;;;;4986651;28;20814;-85
2022/10/26 02:06:45;;;;;;;0.45;0.25;;;28.40;55.20;;;;;;4983460;28;20408;-84
2022/10/26 02:09:12;;;;;;;0.20;0.20;;;27.80;56.20;;;;;;4977783;28;20917;-82
2022/10/26 02:11:47;;;;;;;0.90;0.20;;;27.50;56.20;;;;;;4972673;28;20387;-85
2022/10/26 02:14:17;;;;;;;0.70;0.20;;;27.40;57.70;;;;;;4972529;28;20422;-87
2022/10/26 02:17:01;;;;;;;1.42;0.30;;;27.40;57.70;;;;;;4971792;28;20394;-86
2022/10/26 02:19:57;;;;;;;0.30;0.20;;;27.40;58.60;;;;;;4978452;28;20418;-88
2022/10/26 02:22:32;;;;;;;1.50;0.30;;;27.60;56.80;;;;;;4969501;28;20417;-87
2022/10/26 02:25:05;;;;;;;0.90;0.30;;;27.40;57.20;;;;;;4970752;28;20395;-85
2022/10/26 02:27:37;;;;;;;0.30;0.30;;;28.00;56.80;;;;;;4971418;28;20391;-89
2022/10/26 02:30:05;;;;;;;0.50;0.30;;;28.50;56.00;;;;;;4969417;28;20406;-87
2022/10/26 02:32:34;;;;;;;0.40;0.20;;;29.10;56.60;;;;;;4972342;28;20414;-86
2022/10/26 02:35:04;;;;;;;0.30;0.20;;;29.40;54.40;;;;;;4987394;28;20414;-86
2022/10/26 02:37:34;;;;;;;1.20;0.22;;;29.00;54.20;;;;;;4993798;28;20372;-89
2022/10/26 02:40:07;;;;;;;0.30;0.30;;;28.70;54.50;;;;;;4992017;28;20757;-89
2022/10/26 02:42:34;;;;;;;2.00;0.40;;;28.90;55.40;;;;;;4992801;28;20542;-85
2022/10/26 02:45:09;;;;;;;0.53;0.30;;;28.50;54.80;;;;;;4991471;28;20389;-86
2022/10/26 02:47:36;;;;;;;5.38;0.98;;;28.80;54.90;;;;;;4990203;28;20532;-88
2022/10/26 02:50:03;;;;;;;0.20;0.20;;;29.30;53.70;;;;;;4992142;28;20555;-86
2022/10/26 02:53:09;;;;;;;0.70;0.20;;;29.20;53.60;;;;;;4990695;28;20396;-86
2022/10/26 02:55:46;;;;;;;4.97;0.88;;;29.10;53.50;;;;;;4992248;28;20749;-87
2022/10/26 02:58:16;;;;;;;0.95;0.30;;;28.90;53.60;;;;;;4991323;28;20380;-90
2022/10/26 03:00:43;;;;;;;1.13;0.40;;;28.40;55.00;;;;;;4992677;28;20428;-86
2022/10/26 03:03:11;;;;;;;1.20;0.38;;;28.50;54.30;;;;;;4991590;28;20412;-91
2022/10/26 03:05:42;;;;;;;0.63;0.40;;;28.60;56.20;;;;;;5035456;28;20387;-90
2022/10/26 03:08:09;;;;;;;1.95;0.30;;;28.60;54.60;;;;;;4993609;28;20389;-87
2022/10/26 03:10:41;;;;;;;0.60;0.30;;;28.60;54.60;;;;;;4993207;28;20400;-86
2022/10/26 03:13:09;;;;;;;0.22;0.20;;;28.70;55.60;;;;;;4991600;28;20373;-85
2022/10/26 03:15:37;;;;;;;1.25;0.32;;;29.00;54.70;;;;;;4992107;28;20492;-90
2022/10/26 03:18:04;;;;;;;0.28;0.17;;;29.20;55.30;;;;;;4991504;28;20392;-89
2022/10/26 03:20:31;;;;;;;2.58;0.40;;;29.20;53.80;;;;;;4991693;28;20393;-90
2022/10/26 03:22:58;;;;;;;1.73;0.30;;;29.20;54.70;;;;;;4992238;28;20381;-93
2022/10/26 03:25:26;;;;;;;0.70;0.30;;;28.80;54.40;;;;;;4993670;28;20467;-91
2022/10/26 03:28:03;;;;;;;2.40;0.40;;;28.80;54.20;;;;;;4994430;28;20416;-89
2022/10/26 03:30:31;;;;;;;0.63;0.38;;;28.70;54.90;;;;;;4994630;28;20419;-92
2022/10/26 03:32:58;;;;;;;0.40;0.40;;;29.20;53.70;;;;;;4997178;28;20375;-86
2022/10/26 03:35:25;;;;;;;6.47;0.50;;;29.50;53.40;;;;;;4997688;28;20420;-89
2022/10/26 03:37:52;;;;;;;0.40;0.30;;;30.50;53.10;;;;;;4998725;28;20738;-86
2022/10/26 03:40:19;;;;;;;1.25;0.30;;;30.60;51.20;;;;;;4997937;28;20389;-86
2022/10/26 03:42:46;;;;;;;1.50;0.30;;;30.90;51.40;;;;;;4997801;28;20384;-90
2022/10/26 03:45:13;;;;;;;1.20;0.20;;;30.70;51.20;;;;;;4997670;28;20400;-87
2022/10/26 03:47:46;;;;;;;0.20;0.20;;;30.70;51.30;;;;;;4996852;28;20718;-89
2022/10/26 03:50:16;;;;;;;0.23;0.20;;;30.40;50.80;;;;;;4995752;28;20384;-85
2022/10/26 03:52:43;;;;;;;1.85;0.30;;;30.30;51.90;;;;;;4996502;28;20376;-85
2022/10/26 03:55:10;;;;;;;0.40;0.20;;;30.20;51.80;;;;;;5005594;28;20406;-87
2022/10/26 03:57:44;;;;;;;1.45;0.20;;;30.70;52.10;;;;;;5000656;28;20388;-91
2022/10/26 04:00:14;;;;;;;0.47;0.40;;;30.70;52.30;;;;;;4996202;28;20388;-86
2022/10/26 04:03:04;;;;;;;0.30;0.30;;;30.90;52.80;;;;;;4995033;28;20435;-86
2022/10/26 04:05:35;;;;;;;1.50;0.40;;;31.70;51.20;;;;;;4998638;28;20388;-95
2022/10/26 04:08:02;;;;;;;0.35;0.35;;;32.40;49.90;;;;;;5000042;28;20434;-89
2022/10/26 04:10:29;;;;;;;0.23;0.23;;;32.40;48.50;;;;;;4996088;28;20583;-89
2022/10/26 04:12:59;;;;;;;0.30;0.30;;;31.90;49.20;;;;;;5009860;28;20539;-86
2022/10/26 04:15:26;;;;;;;0.70;0.28;;;32.10;49.20;;;;;;4995018;28;20414;-87
2022/10/26 04:17:57;;;;;;;0.25;0.25;;;32.30;47.90;;;;;;4993765;28;20824;-95
2022/10/26 04:20:25;;;;;;;0.40;0.33;;;32.10;48.20;;;;;;5002136;28;20912;-89
2022/10/26 04:23:04;;;;;;;1.20;0.20;;;32.00;49.60;;;;;;5001335;28;20380;-88
2022/10/26 04:25:34;;;;;;;0.83;0.30;;;31.90;49.00;;;;;;4996494;28;20393;-89
2022/10/26 04:28:03;;;;;;;0.90;0.30;;;32.00;49.80;;;;;;5000728;28;20384;-89
2022/10/26 04:30:33;;;;;;;0.88;0.30;;;32.40;49.00;;;;;;4997765;28;20411;-92
2022/10/26 04:33:00;;;;;;;0.30;0.30;;;32.70;48.80;;;;;;5001216;28;20377;-86
2022/10/26 04:35:27;;;;;;;0.30;0.30;;;32.90;48.80;;;;;;4996697;28;20726;-90
2022/10/26 04:38:03;;;;;;;1.27;0.30;;;33.10;47.30;;;;;;4994833;28;20381;-86
2022/10/26 04:40:31;;;;;;;1.23;0.50;;;33.50;47.40;;;;;;4995125;28;20794;-89
2022/10/26 04:42:59;;;;;;;0.90;0.40;;;33.60;47.70;;;;;;4996582;28;20396;-85
2022/10/26 04:45:32;;;;;;;0.60;0.40;;;33.20;46.40;;;;;;4995552;28;20389;-81
2022/10/26 04:48:08;;;;;;;0.50;0.30;;;33.00;47.00;;;;;;4987414;28;20375;-83
2022/10/26 04:50:36;;;;;;;0.30;0.30;;;33.00;45.70;;;;;;4996698;28;20396;-84
2022/10/26 04:53:08;;;;;;;1.67;0.40;;;32.90;45.80;;;;;;4994614;28;20889;-85
2022/10/26 04:55:36;;;;;;;1.92;0.60;;;32.90;46.50;;;;;;4993830;28;20402;-89
2022/10/26 04:58:03;;;;;;;0.88;0.40;;;33.40;45.90;;;;;;4994307;28;20376;-88
2022/10/26 05:00:31;;;;;;;1.60;0.50;;;33.40;44.70;;;;;;4993963;28;20396;-86
2022/10/26 05:03:06;;;;;;;0.73;0.30;;;32.90;45.30;;;;;;4994514;28;20373;-84
2022/10/26 05:05:34;;;;;;;0.30;0.30;;;32.60;45.80;;;;;;4994011;28;20389;-88
2022/10/26 05:08:02;;;;;;;0.97;0.60;;;32.20;46.80;;;;;;4992855;28;20820;-83
2022/10/26 05:10:29;;;;;;;0.63;0.40;;;32.10;46.90;;;;;;4993657;28;20416;-84
2022/10/26 05:12:58;;;;;;;0.77;0.40;;;31.80;48.00;;;;;;4993449;28;20811;-87
2022/10/26 05:15:26;;;;;;;1.85;0.70;;;32.00;48.50;;;;;;4994937;28;20439;-84
2022/10/26 05:18:04;;;;;;;3.33;1.30;;;32.70;46.20;;;;;;5001144;28;20512;-83
2022/10/26 05:20:33;;;;;;;2.92;0.80;;;32.40;46.30;;;;;;4993593;28;20424;-83
2022/10/26 05:23:02;;;;;;;0.43;0.40;;;31.20;47.30;;;;;;4992084;28;20387;-88
2022/10/26 05:25:33;;;;;;;2.23;0.80;;;30.80;48.80;;;;;;4993184;28;20484;-86
2022/10/26 05:28:01;;;;;;;1.83;0.70;;;30.70;47.10;;;;;;4983413;28;20377;-91
2022/10/26 05:30:30;;;;;;;3.10;0.50;;;30.50;47.90;;;;;;4995157;28;20896;-86
2022/10/26 05:32:58;;;;;;;0.63;0.40;;;30.00;49.90;;;;;;5004378;28;20416;-84
2022/10/26 05:35:39;;;;;;;1.23;0.40;;;30.20;50.10;;;;;;4990147;28;20456;-87
2022/10/26 05:38:16;;;;;;;0.52;0.40;;;30.50;50.70;;;;;;5000117;28;20409;-84
2022/10/26 05:40:51;;;;;;;0.47;0.40;;;31.10;50.00;;;;;;4989537;28;20389;-81
2022/10/26 05:43:18;;;;;;;0.57;0.40;;;31.70;48.60;;;;;;4991504;28;20439;-86
2022/10/26 05:45:46;;;;;;;0.82;0.40;;;31.50;48.30;;;;;;4991483;28;20540;-84
2022/10/26 05:48:13;;;;;;;2.22;0.30;;;31.40;48.50;;;;;;4991302;28;20381;-83
2022/10/26 05:50:40;;;;;;;0.60;0.40;;;31.00;49.30;;;;;;4991437;28;20412;-83
2022/10/26 05:53:07;;;;;;;1.50;0.50;;;31.20;49.90;;;;;;4991622;28;20392;-84
2022/10/26 05:55:35;;;;;;;1.40;0.50;;;31.20;49.20;;;;;;4999826;28;20427;-82
2022/10/26 05:58:02;;;;;;;1.23;0.80;;;31.30;48.90;;;;;;4992812;28;20389;-82
2022/10/26 06:00:30;;;;;;;2.95;0.57;;;31.20;49.50;;;;;;4989900;28;20804;-81
2022/10/26 06:03:09;;;;;;;1.30;0.40;;;31.00;50.20;;;;;;4991300;28;20514;-85
2022/10/26 06:05:51;;;;;;;0.90;0.40;;;31.00;50.10;;;;;;4990454;28;20475;-88
2022/10/26 06:08:18;;;;;;;0.30;0.30;;;30.90;50.50;;;;;;4994081;28;20419;-85
2022/10/26 06:10:46;;;;;;;1.85;0.30;;;31.00;50.10;;;;;;4996189;28;20404;-87
2022/10/26 06:13:14;;;;;;;0.90;0.40;;;31.30;49.70;;;;;;4994635;28;20865;-81
2022/10/26 06:16:01;;;;;;;1.98;0.50;;;31.20;47.90;;;;;;4994758;28;20483;-84
2022/10/26 06:19:15;;;;;;;0.90;0.40;;;31.00;47.20;;;;;;4995820;28;20400;-84
2022/10/26 06:21:47;;;;;;;0.93;0.40;;;30.90;47.20;;;;;;4978522;28;20917;-86
2022/10/26 06:24:50;;;;;;;1.80;0.40;;;30.00;48.20;;;;;;4974753;28;20397;-83
2022/10/26 06:27:32;;;;;;;2.75;0.60;;;29.50;49.70;;;;;;4974230;28;20401;-85
2022/10/26 06:30:11;;;;;;;1.50;0.50;;;29.00;50.90;;;;;;4990023;28;20838;-83
2022/10/26 06:32:45;;;;;;;6.03;3.83;;;28.50;52.20;;;;;;4975075;28;20505;-85
2022/10/26 06:35:33;;;;;;;3.67;0.60;;;28.10;52.60;;;;;;4973122;28;20513;-85
2022/10/26 06:38:04;;;;;;;0.57;0.40;;;27.80;53.40;;;;;;4976481;28;20371;-83
2022/10/26 06:40:40;;;;;;;1.77;0.70;;;27.50;54.40;;;;;;4977685;28;20409;-83
2022/10/26 06:43:33;;;;;;;3.58;1.00;;;27.30;55.30;;;;;;4973743;28;20390;-85
2022/10/26 06:46:03;;;;;;;2.13;0.90;;;27.20;55.90;;;;;;4973278;28;20418;-83
2022/10/26 06:48:53;;;;;;;3.08;0.90;;;28.20;57.30;;;;;;4966698;28;20458;-83
2022/10/26 06:51:24;;;;;;;1.15;0.55;;;27.00;56.20;;;;;;4960455;28;20754;-84
2022/10/26 06:54:07;;;;;;;2.60;0.70;;;27.00;56.60;;;;;;4974430;28;20399;-84
2022/10/26 06:56:35;;;;;;;1.05;0.60;;;26.80;57.00;;;;;;4979502;28;20447;-82
2022/10/26 06:59:13;;;;;;;1.00;0.60;;;26.80;57.40;;;;;;5010101;28;20379;-84
2022/10/26 07:01:42;;;;;;;0.45;0.45;;;26.70;58.20;;;;;;4992025;28;20405;-84
2022/10/26 07:04:09;;;;;;;1.08;0.47;;;26.70;58.20;;;;;;4995085;28;20857;-83
2022/10/26 07:06:36;;;;;;;0.88;0.40;;;26.60;58.10;;;;;;4993772;28;20392;-85
2022/10/26 07:09:03;;;;;;;0.50;0.40;;;26.60;58.40;;;;;;4993629;28;20432;-84
2022/10/26 07:11:35;;;;;;;0.55;0.30;;;26.60;58.80;;;;;;4993648;28;20366;-83
2022/10/26 07:14:02;;;;;;;0.60;0.50;;;26.50;58.60;;;;;;4995982;28;20408;-83
2022/10/26 07:16:31;;;;;;;0.50;0.30;;;26.40;58.10;;;;;;4997814;28;20919;-82
2022/10/26 07:19:04;;;;;;;0.60;0.40;;;26.40;58.60;;;;;;5020754;28;20461;-83
2022/10/26 07:21:34;;;;;;;1.35;0.47;;;26.40;58.80;;;;;;5005236;28;20404;-83
2022/10/26 07:24:01;;;;;;;1.38;0.60;;;26.40;58.30;;;;;;4998677;28;20560;-83
2022/10/26 07:26:28;;;;;;;3.15;1.92;;;26.30;59.40;;;;;;4998167;28;20381;-81
2022/10/26 07:28:55;;;;;;;1.25;0.70;;;26.20;58.80;;;;;;4992528;28;20404;-87
2022/10/26 07:31:22;;;;;;;1.30;0.73;;;26.20;58.60;;;;;;5003473;28;20395;-84
2022/10/26 07:33:49;;;;;;;0.80;0.50;;;26.10;59.30;;;;;;5001031;28;20398;-85
2022/10/26 07:36:16;;;;;;;1.13;0.52;;;26.10;59.40;;;;;;4993858;28;20410;-84
2022/10/26 07:38:43;;;;;;;1.33;0.45;;;26.00;58.70;;;;;;4991620;28;20736;-83
2022/10/26 07:41:10;;;;;;;0.95;0.60;;;26.00;59.50;;;;;;4984014;28;20399;-81
2022/10/26 07:43:37;;;;;;;1.70;0.50;;;25.90;59.60;;;;;;5000152;28;20399;-83
2022/10/26 07:46:04;;;;;;;0.80;0.50;;;25.80;59.90;;;;;;4997535;28;20405;-84
2022/10/26 07:48:31;;;;;;;2.07;0.53;;;25.80;60.20;;;;;;4999127;28;20392;-82
2022/10/26 07:51:01;;;;;;;2.73;1.83;;;25.70;61.00;;;;;;4993557;28;20894;-83
2022/10/26 07:53:28;;;;;;;2.70;1.25;;;25.70;60.60;;;;;;4991582;28;20443;-83
2022/10/26 07:55:56;;;;;;;3.00;0.67;;;25.70;61.10;;;;;;4991131;28;20407;-83
2022/10/26 07:59:07;;;;;;;2.53;1.20;;;25.70;61.80;;;;;;4991768;28;20385;-82
2022/10/26 08:01:34;;;;;;;1.27;0.80;;;26.00;61.10;;;;;;4970831;28;20387;-85
2022/10/26 08:04:01;;;;;;;1.70;1.30;;;26.20;60.20;;;;;;4971221;28;20438;-85
2022/10/26 08:06:28;;;;;;;1.80;1.42;;;26.10;60.10;;;;;;4970158;28;20390;-83
2022/10/26 08:08:55;;;;;;;3.20;2.77;;;26.10;60.70;;;;;;4969660;28;20433;-82
2022/10/26 08:11:22;;;;;;;4.32;2.83;;;25.80;59.80;;;;;;4980277;28;20495;-83
2022/10/26 08:13:52;;;;;;;15.05;11.52;;;25.70;60.40;;;;;;4969758;28;20410;-83
2022/10/26 08:16:19;;;;;;;12.40;10.85;;;25.60;60.50;;;;;;4969736;28;20390;-83
2022/10/26 08:18:50;;;;;;;14.77;11.10;;;25.50;61.00;;;;;;4968856;28;20391;-83
2022/10/26 08:21:18;;;;;;;1.45;1.05;;;25.40;60.60;;;;;;4969905;28;20891;-83
2022/10/26 08:23:45;;;;;;;1.77;0.40;;;25.40;61.30;;;;;;4971372;28;20776;-83
2022/10/26 08:26:13;;;;;;;0.80;0.40;;;25.30;61.50;;;;;;4973302;28;20750;-83
2022/10/26 08:28:41;;;;;;;2.13;0.52;;;25.30;61.70;;;;;;4971321;28;20406;-83
2022/10/26 08:31:08;;;;;;;1.00;0.40;;;25.30;61.70;;;;;;4981157;28;20425;-83
2022/10/26 08:33:35;;;;;;;1.00;0.50;;;25.20;62.30;;;;;;4972734;28;20473;-83
2022/10/26 08:36:05;;;;;;;1.48;0.40;;;25.10;62.20;;;;;;4979705;28;20418;-82
2022/10/26 08:38:34;;;;;;;0.50;0.50;;;25.10;62.60;;;;;;4999825;28;20385;-83
2022/10/26 08:41:10;;;;;;;0.68;0.50;;;25.00;63.40;;;;;;5006044;28;20455;-83
2022/10/26 08:43:47;;;;;;;0.65;0.40;;;25.00;63.20;;;;;;4995549;28;20393;-83
2022/10/26 08:46:21;;;;;;;0.70;0.40;;;24.90;63.60;;;;;;4996265;28;20396;-83
2022/10/26 08:48:58;;;;;;;0.90;0.40;;;24.80;63.90;;;;;;4995914;28;20888;-86
2022/10/26 08:51:34;;;;;;;1.58;0.40;;;24.80;64.30;;;;;;5007446;28;20859;-83
2022/10/26 08:54:16;;;;;;;0.60;0.50;;;24.80;64.40;;;;;;5002304;28;20414;-84
2022/10/26 08:56:57;;;;;;;1.90;0.70;;;24.80;64.00;;;;;;4989680;28;20408;-83
2022/10/26 08:59:33;;;;;;;0.65;0.60;;;24.80;64.20;;;;;;4994945;28;20538;-84
2022/10/26 09:02:01;;;;;;;0.60;0.40;;;24.80;64.20;;;;;;4993576;28;20388;-84
2022/10/26 09:04:31;;;;;;;1.05;0.50;;;24.80;64.60;;;;;;4992068;28;20471;-84
2022/10/26 09:07:03;;;;;;;0.60;0.50;;;24.70;64.70;;;;;;4993696;28;20868;-84
2022/10/26 09:10:04;;;;;;;1.55;0.57;;;24.70;64.90;;;;;;4991511;28;20475;-84
2022/10/26 09:12:57;;;;;;;1.02;0.60;;;24.70;65.40;;;;;;5001854;28;20403;-85
2022/10/26 09:15:51;;;;;;;0.60;0.60;;;24.60;66.10;;;;;;4993024;28;20444;-85
2022/10/26 09:18:32;;;;;;;0.87;0.60;;;24.40;66.00;;;;;;5001349;28;20396;-84
2022/10/26 09:21:20;;;;;;;1.08;0.50;;;24.40;65.80;;;;;;4991983;28;20422;-84
2022/10/26 09:24:20;;;;;;;0.80;0.52;;;24.40;66.40;;;;;;4991964;28;20393;-85
2022/10/26 09:27:05;;;;;;;1.90;0.70;;;24.40;66.80;;;;;;4988688;28;20397;-84
2022/10/26 09:29:41;;;;;;;1.50;0.50;;;24.30;66.80;;;;;;4999489;28;20397;-85
2022/10/26 09:32:38;;;;;;;1.65;0.50;;;24.30;66.10;;;;;;4996137;28;20399;-85
2022/10/26 09:35:12;;;;;;;1.50;0.70;;;24.30;66.30;;;;;;4995566;28;20896;-85
2022/10/26 09:38:07;;;;;;;1.00;0.60;;;24.30;67.30;;;;;;4992818;28;20431;-85
2022/10/26 09:40:55;;;;;;;1.05;0.50;;;24.20;67.40;;;;;;4950960;29;20525;-85
2022/10/26 09:43:33;;;;;;;1.98;0.60;;;24.00;67.70;;;;;;4951028;29;20923;-85
2022/10/26 09:46:01;;;;;;;0.77;0.50;;;24.00;67.00;;;;;;4951216;29;20499;-85
2022/10/26 09:48:44;;;;;;;1.77;0.60;;;23.90;66.90;;;;;;4951291;29;20398;-86
2022/10/26 09:51:11;;;;;;;1.40;0.70;;;23.90;67.30;;;;;;4950586;29;20483;-85
2022/10/26 09:53:38;;;;;;;0.73;0.60;;;23.80;66.90;;;;;;4951706;29;21439;-85
2022/10/26 09:56:08;;;;;;;0.70;0.60;;;23.80;67.20;;;;;;4951700;29;20423;-85
2022/10/26 09:58:49;;;;;;;1.33;0.60;;;23.80;66.50;;;;;;4951285;28;20391;-84
2022/10/26 10:01:33;;;;;;;1.20;0.50;;;23.80;66.50;;;;;;4920260;29;20460;-84
2022/10/26 10:04:19;;;;;;;1.87;0.70;;;23.80;66.70;;;;;;4939708;29;20394;-84
2022/10/26 10:07:02;;;;;;;1.17;0.70;;;23.70;66.60;;;;;;4935189;29;20396;-83
2022/10/26 10:09:29;;;;;;;0.60;0.60;;;23.60;67.30;;;;;;4951090;29;20387;-85
2022/10/26 10:12:03;;;;;;;0.90;0.57;;;23.50;67.60;;;;;;4950521;28;20804;-84
2022/10/26 10:14:38;;;;;;;0.82;0.50;;;23.40;67.20;;;;;;4948880;29;20439;-85
2022/10/26 10:17:20;;;;;;;1.20;0.60;;;23.50;67.80;;;;;;4965184;28;20462;-84
2022/10/26 10:19:48;;;;;;;1.02;0.55;;;23.30;68.00;;;;;;5001800;28;20391;-85
2022/10/26 10:22:15;;;;;;;1.23;0.80;;;23.20;68.70;;;;;;5005950;28;20401;-85
2022/10/26 10:25:03;;;;;;;0.70;0.70;;;23.20;68.10;;;;;;4992267;28;20396;-84
2022/10/26 10:27:32;;;;;;;3.17;0.90;;;23.10;68.90;;;;;;4991815;28;20960;-85
2022/10/26 10:30:19;;;;;;;1.45;0.80;;;23.00;69.70;;;;;;4992598;28;20447;-85
2022/10/26 10:33:02;;;;;;;0.88;0.75;;;23.00;70.00;;;;;;4991328;28;20385;-84
2022/10/26 10:35:30;;;;;;;0.60;0.60;;;22.90;70.10;;;;;;4991758;28;20416;-83
2022/10/26 10:38:00;;;;;;;1.00;0.80;;;22.90;70.50;;;;;;5000908;28;20462;-84
2022/10/26 10:40:30;;;;;;;1.40;0.80;;;22.80;70.80;;;;;;4996429;28;20385;-85
2022/10/26 10:43:12;;;;;;;1.20;1.00;;;22.70;71.10;;;;;;4996124;28;20893;-84
2022/10/26 10:45:46;;;;;;;1.80;0.80;;;22.60;71.70;;;;;;4991371;28;20397;-84
2022/10/26 10:48:15;;;;;;;1.90;0.90;;;22.60;71.70;;;;;;4991901;28;20384;-84
2022/10/26 10:51:21;;;;;;;3.63;1.23;;;22.50;72.30;;;;;;5022101;28;20403;-84
2022/10/26 10:53:51;;;;;;;2.27;0.87;;;22.50;72.60;;;;;;4992583;28;20408;-84
2022/10/26 10:56:46;;;;;;;1.63;1.00;;;22.50;73.10;;;;;;4997168;28;20425;-84
2022/10/26 10:59:42;;;;;;;2.20;0.97;;;22.40;74.00;;;;;;4996140;28;20744;-84
2022/10/26 11:02:56;;;;;;;2.38;1.02;;;22.20;74.10;;;;;;4997652;28;20392;-84
2022/10/26 11:05:46;;;;;;;2.70;0.80;;;22.20;75.10;;;;;;4987384;28;20989;-83
2022/10/26 11:08:19;;;;;;;1.23;0.90;;;22.20;75.10;;;;;;4998144;28;20395;-84
2022/10/26 11:11:07;;;;;;;2.03;0.80;;;22.10;76.00;;;;;;5003222;28;20503;-84
2022/10/26 11:14:01;;;;;;;4.60;0.70;;;22.10;76.00;;;;;;4999163;28;20407;-85
2022/10/26 11:17:08;;;;;;;1.30;0.70;;;22.20;75.70;;;;;;4977080;28;20480;-84
2022/10/26 11:20:05;;;;;;;1.50;0.60;;;22.30;75.80;;;;;;4976274;28;20387;-84
2022/10/26 11:23:15;;;;;;;2.45;0.50;;;22.40;75.80;;;;;;4979758;28;20774;-85
2022/10/26 11:25:55;;;;;;;1.10;0.60;;;22.30;76.30;;;;;;4982527;28;20798;-84
2022/10/26 11:28:53;;;;;;;3.47;0.68;;;22.30;76.10;;;;;;4983913;28;20983;-85
2022/10/26 11:31:43;;;;;;;1.00;0.50;;;22.30;76.30;;;;;;4941733;29;20482;-84
2022/10/26 11:34:50;;;;;;;0.90;0.50;;;22.30;76.80;;;;;;4940423;29;20406;-86
2022/10/26 11:37:55;;;;;;;1.90;0.60;;;22.20;77.40;;;;;;4941317;29;20398;-86
2022/10/26 11:40:44;;;;;;;1.23;0.70;;;22.20;78.20;;;;;;4943546;29;20801;-85
2022/10/26 11:43:39;;;;;;;1.38;0.70;;;22.20;78.20;;;;;;4952606;29;20970;-85
2022/10/26 11:46:22;;;;;;;0.77;0.60;;;22.20;78.40;;;;;;4928195;29;20409;-85
2022/10/26 11:49:17;;;;;;;1.27;0.70;;;22.10;79.30;;;;;;4946377;29;20400;-84
2022/10/26 11:52:23;;;;;;;1.02;0.60;;;20.60;79.30;;;;;;4971256;28;20382;-86
2022/10/26 11:55:05;;;;;;;1.93;0.70;;;22.00;81.10;;;;;;4971317;28;20453;-84
2022/10/26 11:57:45;;;;;;;1.00;0.80;;;21.90;80.90;;;;;;4971017;28;20424;-87
2022/10/26 12:00:15;;;;;;;0.80;0.80;;;22.00;81.20;;;;;;4966177;28;20399;-84
2022/10/26 12:03:08;;;;;;;2.00;0.80;;;22.00;81.70;;;;;;4998560;28;20399;-84
2022/10/26 12:05:56;;;;;;;1.93;0.83;;;21.90;82.30;;;;;;5005916;28;20734;-84
2022/10/26 12:08:26;;;;;;;3.08;0.90;;;21.80;83.40;;;;;;5006131;28;20918;-84
2022/10/26 12:11:10;;;;;;;2.47;0.90;;;21.80;83.80;;;;;;5005745;28;20462;-85
2022/10/26 12:14:05;;;;;;;2.22;0.80;;;21.80;84.60;;;;;;5001949;28;20424;-84
2022/10/26 12:17:14;;;;;;;1.23;0.60;;;21.80;85.80;;;;;;5004432;28;20904;-84
2022/10/26 12:20:04;;;;;;;0.52;0.50;;;21.80;85.80;;;;;;4998605;28;20506;-84
2022/10/26 12:22:42;;;;;;;1.10;0.50;;;21.70;87.40;;;;;;5001083;28;20385;-85
2022/10/26 12:25:20;;;;;;;0.80;0.50;;;21.60;88.10;;;;;;4970651;28;20419;-85
2022/10/26 12:27:48;;;;;;;1.13;0.50;;;21.60;89.40;;;;;;4996376;28;20388;-85
2022/10/26 12:30:21;;;;;;;1.55;0.40;;;21.60;89.50;;;;;;4995615;28;20419;-84
2022/10/26 12:32:49;;;;;;;1.47;0.47;;;21.60;90.50;;;;;;4995794;28;20454;-85
2022/10/26 12:35:28;;;;;;;1.52;0.35;;;21.60;90.70;;;;;;4995569;28;20413;-84
2022/10/26 12:37:55;;;;;;;0.87;0.50;;;21.60;91.10;;;;;;4995521;28;20479;-83
2022/10/26 12:40:33;;;;;;;1.10;0.40;;;21.50;91.60;;;;;;4992314;28;20425;-83
2022/10/26 12:43:23;;;;;;;0.73;0.40;;;21.50;92.20;;;;;;4999136;28;20918;-83
2022/10/26 12:46:14;;;;;;;1.55;0.50;;;21.50;92.70;;;;;;4987894;28;20391;-82
2022/10/26 12:48:47;;;;;;;0.90;0.50;;;21.40;93.20;;;;;;4991461;28;20381;-83
2022/10/26 12:51:26;;;;;;;0.40;0.40;;;21.40;93.20;;;;;;5007187;28;20934;-83
2022/10/26 12:54:01;;;;;;;0.43;0.40;;;21.30;93.10;;;;;;5010821;28;20450;-83
2022/10/26 12:57:01;;;;;;;1.00;0.50;;;21.30;93.30;;;;;;5007876;28;20914;-83
2022/10/26 13:00:04;;;;;;;1.93;0.70;;;21.30;94.00;;;;;;4936170;29;20381;-83
2022/10/26 13:02:47;;;;;;;1.50;0.60;;;21.30;94.50;;;;;;4933167;29;20519;-83
2022/10/26 13:05:25;;;;;;;1.88;0.68;;;21.20;94.90;;;;;;4933096;29;20409;-83
2022/10/26 13:08:00;;;;;;;1.17;0.50;;;21.20;95.10;;;;;;4933017;29;20466;-83
2022/10/26 13:10:27;;;;;;;1.70;0.40;;;21.10;95.40;;;;;;4925909;29;20510;-84
2022/10/26 13:12:56;;;;;;;2.40;0.52;;;21.10;95.90;;;;;;4933228;29;20382;-83
2022/10/26 13:15:37;;;;;;;0.88;0.47;;;21.00;95.60;;;;;;4932947;29;20414;-83
2022/10/26 13:18:17;;;;;;;1.35;0.57;;;21.00;95.70;;;;;;4946239;29;20864;-83
2022/10/26 13:21:05;;;;;;;2.70;0.60;;;21.00;96.10;;;;;;4932675;29;20405;-83
2022/10/26 13:23:38;;;;;;;0.90;0.50;;;20.90;96.20;;;;;;4932508;29;20398;-84
2022/10/26 13:26:13;;;;;;;0.73;0.40;;;20.90;96.80;;;;;;4933045;29;20397;-83
2022/10/26 13:28:40;;;;;;;2.42;0.50;;;20.80;97.40;;;;;;4931880;29;20413;-83
2022/10/26 13:31:30;;;;;;;0.80;0.40;;;20.80;98.10;;;;;;4931639;29;20410;-83